LTBA/IST METAR and TAF weather

Enter ICAO airport designator
Station Type Date Time Source
LTBA METAR 2019/04/21 21:50 UTC NOAA

LTBA 212150Z 08004KT CAVOK 10/02 Q1023 NOSIG


Station Type Date Time Source
LTBA Decoded METAR 2019/04/21 21:50 UTC NOAA

Istanbul / Ataturk, Turkey (LTBA) 40-58N 028-49E 37M
Apr 21, 2019 - 05:50 PM EDT / 2019.04.21 2150 UTC
Wind: from the E (080 degrees) at 5 MPH (4 KT):0
Visibility: greater than 7 mile(s):0
Temperature: 50 F (10 C)
Dew Point: 35 F (2 C)
Relative Humidity: 57%
Pressure (altimeter): 30.21 in. Hg (1023 hPa)
ob: LTBA 212150Z 08004KT CAVOK 10/02 Q1023 NOSIG
cycle: 22

Station Type Date Time Source
LTBA TAF 2019/04/21 18:03 UTC NOAA

TAF LTBA 211640Z 2118/2224 VRB02KT CAVOK
BECMG 2206/2210 23012KT
BECMG 2213/2216 05012KT

Example: see airport list